Time;durP1;ratioP1;P1;durP2;ratioP2;P2;SDS_P1;SDS_P2;PMS_P1;PMS_P2;Temp;Humidity;BMP_temperature;BMP_pressure;BME280_temperature;BME280_humidity;BME280_pressure;Samples;Min_cycle;Max_cycle;Signal;HPM_P1;HPM_P2
2022/05/09 00:02:11;;;;;;;;;20.67;17.33;;;;;17.00;53.69;101840.31;5053760;27;47197;-61
2022/05/09 00:04:37;;;;;;;;;15.67;15.67;;;;;16.90;53.96;101827.56;5074964;27;45469;-58
2022/05/09 00:07:04;;;;;;;;;13.67;13.00;;;;;16.89;54.02;101834.75;5063303;27;45486;-60
2022/05/09 00:09:31;;;;;;;;;21.67;19.00;;;;;16.89;54.20;101842.81;5070047;27;45278;-56
2022/05/09 00:11:57;;;;;;;;;19.00;17.33;;;;;16.75;54.39;101842.81;5069233;27;45562;-55
2022/05/09 00:14:22;;;;;;;;;16.33;16.33;;;;;16.73;54.35;101847.41;5056887;28;46363;-55
2022/05/09 00:16:50;;;;;;;;;14.67;10.67;;;;;16.64;54.61;101851.50;5057523;28;45808;-57
2022/05/09 00:19:17;;;;;;;;;17.33;15.33;;;;;16.59;54.65;101842.88;5072074;28;45414;-53
2022/05/09 00:21:43;;;;;;;;;16.67;16.67;;;;;16.61;54.36;101849.00;5057043;27;45373;-53
2022/05/09 00:24:13;;;;;;;;;16.67;16.67;;;;;16.57;54.99;101843.94;5061408;28;46366;-54
2022/05/09 00:26:39;;;;;;;;;20.33;18.67;;;;;16.53;55.34;101854.84;5065359;27;45873;-60
2022/05/09 00:29:06;;;;;;;;;22.33;19.00;;;;;16.45;55.34;101848.22;5063370;27;45538;-57
2022/05/09 00:31:32;;;;;;;;;14.00;13.67;;;;;16.31;55.50;101835.63;5065967;27;45564;-53
2022/05/09 00:33:58;;;;;;;;;14.67;14.67;;;;;16.31;55.40;101846.38;5057587;28;46269;-58
2022/05/09 00:36:23;;;;;;;;;15.67;13.00;;;;;16.26;55.18;101843.06;5057265;28;45476;-54
2022/05/09 00:38:51;;;;;;;;;12.67;12.67;;;;;16.17;55.57;101830.22;5058037;28;45365;-58
2022/05/09 00:41:37;;;;;;;;;14.00;14.00;;;;;16.21;55.20;101842.50;5068732;27;45664;-60
2022/05/09 00:44:12;;;;;;;;;11.67;11.67;;;;;16.16;55.17;101847.28;5060470;28;46917;-59
2022/05/09 00:46:44;;;;;;;;;11.00;11.00;;;;;16.07;54.71;101837.09;5072648;27;45232;-61
2022/05/09 00:49:26;;;;;;;;;14.67;14.67;;;;;16.10;54.82;101842.28;5071453;27;45702;-60
2022/05/09 00:52:13;;;;;;;;;16.33;13.67;;;;;16.08;54.79;101838.81;5074766;28;45507;-59
2022/05/09 00:54:48;;;;;;;;;10.00;10.00;;;;;16.06;54.22;101846.09;5066507;27;46835;-57
2022/05/09 00:57:26;;;;;;;;;12.67;12.67;;;;;16.00;54.67;101836.56;5064879;27;45494;-57
2022/05/09 00:59:55;;;;;;;;;14.67;12.33;;;;;16.05;54.14;101839.00;5049640;28;46873;-58
2022/05/09 01:02:22;;;;;;;;;12.67;11.67;;;;;15.98;54.34;101837.63;5049913;27;45994;-59
2022/05/09 01:04:52;;;;;;;;;13.00;12.00;;;;;15.93;54.30;101829.84;5058850;27;45461;-57
2022/05/09 01:07:18;;;;;;;;;9.33;9.33;;;;;15.96;54.51;101839.53;5072972;28;45568;-60
2022/05/09 01:09:43;;;;;;;;;15.33;11.00;;;;;15.89;54.54;101841.75;5060266;27;45224;-58
2022/05/09 01:12:12;;;;;;;;;11.00;11.00;;;;;15.86;54.46;101840.06;5061322;28;45259;-61
2022/05/09 01:14:39;;;;;;;;;10.33;10.33;;;;;15.82;54.35;101827.81;5061932;28;46214;-60
2022/05/09 01:17:05;;;;;;;;;12.33;8.33;;;;;15.80;53.93;101829.72;5058711;28;45675;-59
2022/05/09 01:19:36;;;;;;;;;9.00;9.00;;;;;15.80;53.83;101832.41;5064882;27;45526;-58
2022/05/09 01:22:03;;;;;;;;;10.00;10.00;;;;;15.80;54.18;101835.06;5068584;28;45676;-60
2022/05/09 01:24:29;;;;;;;;;8.67;8.67;;;;;15.77;54.05;101829.91;5059459;28;45625;-62
2022/05/09 01:26:55;;;;;;;;;12.33;11.00;;;;;15.69;54.06;101834.84;5073168;27;45433;-60
2022/05/09 01:29:26;;;;;;;;;9.00;9.00;;;;;15.62;53.88;101837.00;5068511;28;45972;-55
2022/05/09 01:31:55;;;;;;;;;6.00;6.00;;;;;15.51;53.90;101842.09;5063356;27;45507;-61
2022/05/09 01:34:20;;;;;;;;;12.00;9.33;;;;;15.45;53.81;101829.00;5064534;27;45467;-59
2022/05/09 01:36:52;;;;;;;;;8.33;6.33;;;;;15.53;53.87;101837.50;5058719;27;45504;-59
2022/05/09 01:39:17;;;;;;;;;13.33;8.33;;;;;15.50;53.77;101832.31;5068745;27;45480;-58
2022/05/09 01:41:45;;;;;;;;;10.00;8.33;;;;;15.50;53.88;101842.19;5075821;27;45419;-57
2022/05/09 01:44:12;;;;;;;;;10.00;8.67;;;;;15.46;53.77;101830.75;5069147;27;46169;-60
2022/05/09 01:49:29;;;;;;;;;9.67;7.00;;;;;15.47;53.98;101837.81;5066340;27;45410;-60
2022/05/09 01:49:29;;;;;;;;;16.00;6.33;;;;;15.41;53.92;101832.84;5066994;27;45526;-63
2022/05/09 01:51:54;;;;;;;;;8.33;8.33;;;;;15.47;53.88;101832.47;5070669;27;45668;-60
2022/05/09 01:54:20;;;;;;;;;8.00;8.00;;;;;15.41;54.12;101826.59;5058583;28;46225;-59
2022/05/09 01:56:45;;;;;;;;;9.00;8.00;;;;;15.42;53.95;101833.69;5055472;28;45532;-63
2022/05/09 01:59:12;;;;;;;;;9.67;7.67;;;;;15.32;53.92;101820.81;5049836;28;45968;-59
2022/05/09 02:01:44;;;;;;;;;9.67;5.00;;;;;15.31;54.21;101826.25;5051228;27;45572;-56
2022/05/09 02:04:13;;;;;;;;;8.67;8.67;;;;;15.34;54.20;101832.28;5041817;28;47045;-54
2022/05/09 02:06:39;;;;;;;;;7.00;6.67;;;;;15.33;54.34;101825.22;5062118;28;45452;-57
2022/05/09 02:09:06;;;;;;;;;7.00;7.00;;;;;15.33;54.50;101827.88;5067829;28;45366;-57
2022/05/09 02:11:32;;;;;;;;;8.00;8.00;;;;;15.28;54.17;101831.78;5066174;27;45540;-53
2022/05/09 02:13:58;;;;;;;;;8.00;5.67;;;;;15.18;54.88;101834.13;5070354;27;46881;-58
2022/05/09 02:16:24;;;;;;;;;9.33;8.00;;;;;15.08;54.55;101830.22;5062522;28;45427;-60
2022/05/09 02:18:49;;;;;;;;;8.67;6.67;;;;;15.06;54.87;101826.75;5069196;28;45447;-56
2022/05/09 02:21:15;;;;;;;;;10.00;6.00;;;;;15.05;54.91;101833.06;5055689;28;45527;-53
2022/05/09 02:23:41;;;;;;;;;14.33;10.00;;;;;14.93;54.99;101818.53;5068345;28;45491;-59
2022/05/09 02:26:07;;;;;;;;;11.00;9.00;;;;;14.83;55.05;101817.28;5060389;28;45442;-62
2022/05/09 02:28:32;;;;;;;;;8.33;8.33;;;;;14.87;55.33;101826.03;5064924;28;45660;-56
2022/05/09 02:30:58;;;;;;;;;9.67;8.67;;;;;14.81;55.81;101832.56;5063390;27;45577;-58
2022/05/09 02:33:23;;;;;;;;;10.00;9.00;;;;;14.74;55.55;101821.34;5065255;28;45332;-58
2022/05/09 02:35:49;;;;;;;;;10.33;9.33;;;;;14.75;55.79;101833.78;5062261;27;45460;-60
2022/05/09 02:38:16;;;;;;;;;8.00;8.00;;;;;14.68;55.83;101821.66;5058338;27;45266;-61
2022/05/09 02:40:42;;;;;;;;;10.33;8.33;;;;;14.66;55.48;101810.19;5061894;27;45403;-58
2022/05/09 02:43:07;;;;;;;;;8.00;8.00;;;;;14.74;55.73;101820.50;5064799;28;45627;-59
2022/05/09 02:45:33;;;;;;;;;9.33;7.33;;;;;14.77;55.92;101831.03;5081986;27;45457;-58
2022/05/09 02:47:59;;;;;;;;;6.67;6.67;;;;;14.67;55.50;101822.59;5061843;28;45439;-63
2022/05/09 02:50:26;;;;;;;;;7.33;7.33;;;;;14.71;55.98;101825.97;5070325;27;45588;-63
2022/05/09 02:52:52;;;;;;;;;10.33;8.67;;;;;14.73;55.98;101829.47;5052163;28;47079;-58
2022/05/09 02:55:19;;;;;;;;;8.67;7.00;;;;;14.75;55.81;101828.44;5039695;28;45539;-60
2022/05/09 02:57:45;;;;;;;;;10.00;9.00;;;;;14.75;55.53;101825.75;5049777;28;45486;-53
2022/05/09 03:00:16;;;;;;;;;8.00;7.00;;;;;14.78;56.11;101823.84;5043553;28;45625;-60
2022/05/09 03:04:38;;;;;;;;;8.00;8.00;;;;;14.77;55.90;101819.44;5065846;27;47264;-62
2022/05/09 03:05:27;;;;;;;;;10.00;10.00;;;;;14.65;56.43;101819.16;5065872;27;45591;-62
2022/05/09 03:07:52;;;;;;;;;8.00;8.00;;;;;14.58;56.84;101819.56;5082768;27;45282;-60
2022/05/09 03:10:18;;;;;;;;;11.00;11.00;;;;;14.45;57.31;101819.34;5075586;27;45712;-60
2022/05/09 03:12:43;;;;;;;;;13.67;10.00;;;;;14.35;57.29;101804.69;5076861;27;45315;-64
2022/05/09 03:15:09;;;;;;;;;10.00;9.00;;;;;14.33;57.79;101803.91;5065663;27;45277;-61
2022/05/09 03:17:34;;;;;;;;;13.33;10.00;;;;;14.35;57.58;101802.88;5068127;28;45576;-62
2022/05/09 03:20:00;;;;;;;;;9.00;9.00;;;;;14.39;57.66;101811.59;5075797;28;45287;-61
2022/05/09 03:22:25;;;;;;;;;11.33;9.33;;;;;14.35;57.10;101797.53;5061266;28;47364;-58
2022/05/09 03:24:50;;;;;;;;;10.00;9.00;;;;;14.32;57.42;101802.16;5079166;27;45289;-58
2022/05/09 03:27:16;;;;;;;;;14.67;11.00;;;;;14.28;57.41;101792.56;5066511;27;45547;-59
2022/05/09 03:29:41;;;;;;;;;14.00;11.00;;;;;14.34;57.59;101806.50;5089748;27;45493;-58
2022/05/09 03:32:07;;;;;;;;;9.00;9.00;;;;;14.40;57.68;101822.22;5061588;28;46298;-59
2022/05/09 03:34:32;;;;;;;;;13.33;11.00;;;;;14.32;57.69;101807.50;5077543;27;45459;-61
2022/05/09 03:36:58;;;;;;;;;14.00;11.67;;;;;14.24;57.88;101794.56;5064023;28;46122;-61
2022/05/09 03:39:23;;;;;;;;;12.00;9.00;;;;;14.25;57.86;101798.09;5077762;28;45552;-61
2022/05/09 03:41:50;;;;;;;;;13.33;10.33;;;;;14.17;57.75;101801.16;5068032;27;46109;-55
2022/05/09 03:44:16;;;;;;;;;9.00;9.00;;;;;14.14;58.41;101804.84;5075417;27;45327;-59
2022/05/09 03:46:41;;;;;;;;;13.67;11.33;;;;;14.16;58.68;101819.00;5061275;27;46032;-56
2022/05/09 03:49:06;;;;;;;;;12.33;11.33;;;;;14.03;58.14;101811.69;5078639;28;45251;-60
2022/05/09 03:51:32;;;;;;;;;15.33;13.33;;;;;13.98;59.04;101803.91;5073658;27;45521;-62
2022/05/09 03:53:57;;;;;;;;;12.33;11.33;;;;;13.96;58.89;101810.31;5056114;28;45287;-60
2022/05/09 03:56:22;;;;;;;;;15.00;10.33;;;;;13.92;59.13;101819.41;5058873;28;45398;-55
2022/05/09 03:58:48;;;;;;;;;13.00;10.33;;;;;13.88;59.11;101818.69;5051504;28;45345;-59
2022/05/09 04:01:13;;;;;;;;;16.50;11.75;;;;;13.78;59.11;101801.38;5064528;27;47874;-58
2022/05/09 04:03:39;;;;;;;;;13.75;11.00;;;;;13.77;59.41;101800.50;5049505;27;45509;-59
2022/05/09 04:06:05;;;;;;;;;12.67;11.00;;;;;13.83;59.50;101807.38;5069603;27;45840;-59
2022/05/09 04:08:31;;;;;;;;;15.25;12.25;;;;;13.83;59.16;101813.59;5062873;27;45677;-58
2022/05/09 04:10:56;;;;;;;;;11.25;10.25;;;;;13.82;59.66;101803.84;5062493;27;48211;-57
2022/05/09 04:13:22;;;;;;;;;10.00;10.00;;;;;13.84;59.41;101809.09;5069463;28;45463;-59
2022/05/09 04:18:36;;;;;;;;;12.25;12.25;;;;;13.84;59.73;101809.09;5061835;28;45554;-62
2022/05/09 04:21:02;;;;;;;;;13.00;12.75;;;;;13.73;59.25;101806.09;5077986;27;46207;-61
2022/05/09 04:23:27;;;;;;;;;24.25;17.00;;;;;13.81;59.36;101819.97;5059367;28;45593;-59
2022/05/09 04:25:53;;;;;;;;;12.25;11.25;;;;;13.77;59.54;101818.38;5076676;28;45238;-57
2022/05/09 04:28:22;;;;;;;;;14.50;12.00;;;;;13.60;60.00;101800.50;5061993;28;45595;-58
2022/05/09 04:30:48;;;;;;;;;23.00;15.00;;;;;13.62;59.70;101803.94;5055265;27;45577;-60
2022/05/09 04:33:14;;;;;;;;;18.00;16.25;;;;;13.68;59.69;101806.34;5061012;28;45545;-55
2022/05/09 04:35:40;;;;;;;;;16.75;11.50;;;;;13.70;59.45;101804.44;5059722;28;45455;-57
2022/05/09 04:38:06;;;;;;;;;14.50;14.50;;;;;13.69;59.90;101808.06;5066237;27;45485;-57
2022/05/09 04:40:35;;;;;;;;;16.75;12.25;;;;;13.55;59.82;101811.41;5073486;27;46255;-56
2022/05/09 04:43:01;;;;;;;;;17.75;14.50;;;;;13.54;60.56;101807.03;5066879;27;45320;-59
2022/05/09 04:45:28;;;;;;;;;15.25;14.00;;;;;13.52;60.38;101822.25;5070926;27;45737;-61
2022/05/09 04:47:54;;;;;;;;;15.75;15.50;;;;;13.47;60.69;101823.41;5069566;27;45701;-61
2022/05/09 04:50:22;;;;;;;;;14.00;14.00;;;;;13.44;60.21;101811.06;5057676;28;45268;-63
2022/05/09 04:52:49;;;;;;;;;18.75;15.50;;;;;13.52;60.47;101811.53;5060637;28;45361;-61
2022/05/09 04:55:15;;;;;;;;;13.50;13.50;;;;;13.53;60.42;101823.97;5059568;27;45263;-59
2022/05/09 04:57:42;;;;;;;;;17.33;12.00;;;;;13.55;59.88;101814.09;5055621;27;46115;-56
2022/05/09 05:00:11;;;;;;;;;14.50;14.00;;;;;13.54;60.22;101815.03;5035380;28;46034;-59
2022/05/09 05:02:37;;;;;;;;;19.00;15.25;;;;;13.45;60.73;101807.47;5075279;27;45417;-52
2022/05/09 05:05:04;;;;;;;;;15.75;13.50;;;;;13.47;60.56;101810.91;5067270;28;45377;-53
2022/05/09 05:07:29;;;;;;;;;18.00;15.50;;;;;13.41;60.91;101791.63;5067582;27;45475;-59
2022/05/09 05:09:55;;;;;;;;;23.25;18.00;;;;;13.37;60.52;101790.91;5052912;27;47159;-57
2022/05/09 05:12:20;;;;;;;;;15.50;15.00;;;;;13.41;60.25;101803.22;5069540;28;45511;-60
2022/05/09 05:14:46;;;;;;;;;15.00;13.50;;;;;13.48;60.12;101798.41;5073862;27;45207;-60
2022/05/09 05:17:11;;;;;;;;;15.50;13.50;;;;;13.61;60.00;101812.06;5068144;27;45567;-60
2022/05/09 05:19:42;;;;;;;;;19.25;14.50;;;;;13.62;59.90;101809.31;5055899;28;47071;-60
2022/05/09 05:22:10;;;;;;;;;15.25;15.25;;;;;13.67;59.87;101820.66;5061227;27;45349;-54
2022/05/09 05:24:37;;;;;;;;;17.00;14.25;;;;;13.66;59.75;101813.53;5073187;27;45513;-58
2022/05/09 05:27:05;;;;;;;;;19.75;16.00;;;;;13.76;59.75;101819.31;5074346;27;45758;-61
2022/05/09 05:29:31;;;;;;;;;21.00;17.00;;;;;13.78;59.97;101820.09;5076463;28;47356;-59
2022/05/09 05:31:57;;;;;;;;;14.75;14.75;;;;;13.83;59.49;101826.97;5077141;27;45386;-61
2022/05/09 05:34:23;;;;;;;;;16.00;14.25;;;;;13.85;59.54;101834.91;5073387;28;45476;-58
2022/05/09 05:36:51;;;;;;;;;15.00;15.00;;;;;13.89;59.54;101823.09;5074502;27;45456;-57
2022/05/09 05:39:17;;;;;;;;;14.00;13.00;;;;;13.91;59.45;101818.53;5077191;27;46083;-57
2022/05/09 05:41:44;;;;;;;;;18.33;16.33;;;;;13.94;59.25;101829.09;5066593;27;45461;-57
2022/05/09 05:44:11;;;;;;;;;15.75;15.00;;;;;13.95;58.84;101827.28;5056707;28;45264;-55
2022/05/09 05:46:41;;;;;;;;;22.50;22.25;;;;;13.98;58.92;101819.09;5063983;28;45605;-53
2022/05/09 05:49:08;;;;;;;;;14.25;13.25;;;;;14.05;58.45;101826.72;5066208;27;45494;-58
2022/05/09 05:51:33;;;;;;;;;20.67;15.33;;;;;14.04;58.70;101818.78;5068577;27;45525;-56
2022/05/09 05:53:59;;;;;;;;;19.00;19.00;;;;;14.07;58.45;101814.16;5059690;28;45405;-57
2022/05/09 05:56:26;;;;;;;;;13.67;13.67;;;;;14.11;58.44;101815.72;5061144;28;45595;-57
2022/05/09 05:58:51;;;;;;;;;19.67;18.00;;;;;14.22;58.58;101822.34;5074085;27;46544;-62
2022/05/09 06:01:18;;;;;;;;;16.67;14.00;;;;;14.27;58.35;101830.97;5063065;27;45443;-62
2022/05/09 06:03:44;;;;;;;;;17.00;12.50;;;;;14.30;58.00;101825.47;5055175;28;45373;-60
2022/05/09 06:06:10;;;;;;;;;17.25;16.75;;;;;14.34;57.99;101829.72;5051334;28;45388;-60
2022/05/09 06:08:40;;;;;;;;;13.75;13.75;;;;;14.33;58.17;101831.53;5056338;28;45544;-57
2022/05/09 06:11:06;;;;;;;;;13.50;13.25;;;;;14.28;57.58;101835.38;5074723;27;45406;-56
2022/05/09 06:13:32;;;;;;;;;18.00;13.75;;;;;14.27;57.66;101841.69;5075024;27;45335;-58
2022/05/09 06:15:58;;;;;;;;;16.00;15.00;;;;;14.25;57.70;101838.22;5066869;28;45474;-59
2022/05/09 06:18:23;;;;;;;;;16.00;15.33;;;;;14.34;57.74;101837.75;5063812;28;45472;-64
2022/05/09 06:20:48;;;;;;;;;14.33;11.67;;;;;14.42;58.09;101847.09;5062830;27;45377;-55
2022/05/09 06:23:17;;;;;;;;;22.00;12.25;;;;;14.45;57.83;101835.41;5075993;27;45720;-57
2022/05/09 06:25:44;;;;;;;;;18.67;16.67;;;;;14.50;57.44;101833.38;5075917;27;45534;-56
2022/05/09 06:28:10;;;;;;;;;13.33;10.00;;;;;14.58;57.16;101836.47;5075131;27;45352;-59
2022/05/09 06:30:35;;;;;;;;;18.00;16.75;;;;;14.61;57.70;101839.03;5081134;27;45476;-53
2022/05/09 06:33:02;;;;;;;;;11.50;11.50;;;;;14.60;57.22;101839.97;5055459;27;46597;-61
2022/05/09 06:35:28;;;;;;;;;17.25;16.00;;;;;14.66;57.21;101839.63;5051916;28;45431;-62
2022/05/09 06:38:00;;;;;;;;;19.67;16.33;;;;;14.75;56.68;101841.81;5053103;27;45559;-63
2022/05/09 06:40:28;;;;;;;;;21.50;15.50;;;;;14.84;56.52;101845.78;5059622;28;45523;-61
2022/05/09 06:42:55;;;;;;;;;20.67;16.00;;;;;14.91;56.20;101852.56;5077657;28;45280;-62
2022/05/09 06:45:21;;;;;;;;;14.00;12.67;;;;;14.98;56.37;101855.78;5063624;27;45660;-60
2022/05/09 06:47:49;;;;;;;;;18.67;16.67;;;;;15.05;56.34;101851.81;5062413;28;45409;-57
2022/05/09 06:50:15;;;;;;;;;16.00;16.00;;;;;15.10;56.55;101860.44;5058731;28;45462;-61
2022/05/09 06:52:42;;;;;;;;;19.67;18.33;;;;;15.05;56.46;101862.53;5074445;28;45487;-62
2022/05/09 06:55:08;;;;;;;;;13.33;13.33;;;;;15.07;56.23;101863.31;5059867;28;48541;-63
2022/05/09 06:57:37;;;;;;;;;22.00;16.00;;;;;15.03;56.47;101849.22;5082300;27;45487;-62
2022/05/09 07:00:05;;;;;;;;;22.67;22.67;;;;;15.18;56.35;101857.38;5076315;27;45453;-61
2022/05/09 07:02:31;;;;;;;;;19.00;16.67;;;;;15.16;56.22;101854.78;5077366;28;45366;-61
2022/05/09 07:04:56;;;;;;;;;20.00;19.33;;;;;15.25;56.28;101843.56;5061125;28;45630;-61
2022/05/09 07:07:22;;;;;;;;;19.67;17.33;;;;;15.29;56.05;101845.09;5061930;28;47401;-63
2022/05/09 07:09:47;;;;;;;;;19.00;17.67;;;;;15.41;55.91;101848.91;5058083;27;45453;-61
2022/05/09 07:12:12;;;;;;;;;19.67;18.67;;;;;15.48;55.59;101854.78;5066026;28;45223;-61
2022/05/09 07:14:38;;;;;;;;;19.33;15.33;;;;;15.56;55.11;101863.28;5081338;27;45341;-59
2022/05/09 07:17:05;;;;;;;;;21.67;16.67;;;;;15.59;55.07;101852.34;5082399;28;45370;-58
2022/05/09 07:19:31;;;;;;;;;17.67;15.67;;;;;15.56;54.89;101837.31;5082084;27;45376;-60
2022/05/09 07:21:57;;;;;;;;;18.67;16.33;;;;;15.73;54.93;101848.91;5082483;27;45451;-62
2022/05/09 07:24:22;;;;;;;;;38.00;33.75;;;;;15.77;54.27;101847.81;5082141;28;45570;-61
2022/05/09 07:26:48;;;;;;;;;23.00;17.33;;;;;15.70;54.56;101844.59;5082079;28;45713;-62
2022/05/09 07:29:16;;;;;;;;;16.67;16.33;;;;;15.76;54.63;101841.59;5064539;27;45510;-56
2022/05/09 07:31:41;;;;;;;;;23.67;18.67;;;;;15.91;54.68;101850.56;5082284;28;45505;-59
2022/05/09 07:34:06;;;;;;;;;15.67;15.00;;;;;15.93;54.10;101844.13;5082155;27;45337;-57
2022/05/09 07:36:33;;;;;;;;;21.33;18.00;;;;;15.93;54.21;101848.63;5080602;27;47640;-60
2022/05/09 07:38:59;;;;;;;;;23.33;20.00;;;;;15.92;54.27;101850.47;5082475;27;45485;-54
2022/05/09 07:41:24;;;;;;;;;19.33;17.33;;;;;16.00;54.32;101854.50;5076397;27;45289;-59
2022/05/09 07:43:50;;;;;;;;;24.00;19.00;;;;;15.98;54.19;101849.22;5070533;27;45696;-58
2022/05/09 07:46:15;;;;;;;;;22.00;19.67;;;;;15.96;54.47;101844.91;5080575;27;46931;-57
2022/05/09 07:48:41;;;;;;;;;23.67;19.33;;;;;16.05;54.63;101850.59;5069682;28;45436;-60
2022/05/09 07:51:06;;;;;;;;;26.33;17.00;;;;;16.18;54.75;101853.44;5059168;28;45238;-58
2022/05/09 07:53:34;;;;;;;;;27.67;24.33;;;;;16.25;54.41;101844.03;5095122;27;45276;-60
2022/05/09 07:56:02;;;;;;;;;19.67;19.67;;;;;16.38;54.02;101844.16;5079309;27;46052;-63
2022/05/09 07:58:28;;;;;;;;;16.67;15.33;;;;;16.40;53.91;101827.00;5079137;27;45226;-59
2022/05/09 08:00:58;;;;;;;;;25.33;22.00;;;;;16.56;53.96;101839.50;5065422;27;45239;-59
2022/05/09 08:03:25;;;;;;;;;26.67;21.33;;;;;16.64;53.52;101839.88;5056950;28;45391;-56
2022/05/09 08:05:53;;;;;;;;;24.33;21.00;;;;;16.70;54.07;101831.50;5071922;28;45390;-58
2022/05/09 08:08:19;;;;;;;;;22.00;19.00;;;;;16.76;53.17;101840.03;5067981;28;45309;-59
2022/05/09 08:10:45;;;;;;;;;24.67;20.00;;;;;16.73;53.31;101825.94;5078379;28;45361;-55
2022/05/09 08:13:13;;;;;;;;;24.33;21.33;;;;;16.82;53.21;101825.38;5078859;27;45558;-58
2022/05/09 08:15:39;;;;;;;;;21.00;20.67;;;;;17.03;53.04;101833.88;5077987;27;46056;-54
2022/05/09 08:18:05;;;;;;;;;24.00;20.33;;;;;17.30;52.66;101842.00;5093515;27;45335;-58
2022/05/09 08:20:34;;;;;;;;;19.67;18.67;;;;;17.52;51.87;101841.47;5078925;27;45358;-56
2022/05/09 08:23:03;;;;;;;;;23.00;21.00;;;;;17.62;51.88;101832.72;5065502;27;45250;-59
2022/05/09 08:25:28;;;;;;;;;21.67;21.00;;;;;17.85;51.37;101835.75;5072601;27;46251;-60
2022/05/09 08:27:54;;;;;;;;;22.33;17.00;;;;;18.20;51.02;101834.22;5056217;28;45682;-60
2022/05/09 08:30:20;;;;;;;;;18.67;18.67;;;;;18.62;50.52;101844.81;5057701;28;45520;-62
2022/05/09 08:32:45;;;;;;;;;25.00;22.67;;;;;18.86;49.20;101814.31;5057992;28;45425;-58
2022/05/09 08:35:13;;;;;;;;;33.33;25.33;;;;;19.32;47.85;101832.59;5057527;28;45573;-62
2022/05/09 08:37:43;;;;;;;;;21.33;17.33;;;;;19.64;47.64;101834.75;5056271;28;45459;-57
2022/05/09 08:40:10;;;;;;;;;35.00;31.33;;;;;20.11;46.31;101833.88;5052081;28;45476;-60
2022/05/09 08:42:41;;;;;;;;;23.00;19.00;;;;;20.48;45.95;101831.94;5068367;28;45373;-56
2022/05/09 08:45:35;;;;;;;;;18.33;18.33;;;;;20.92;45.96;101830.25;5077391;27;46258;-61
2022/05/09 08:48:09;;;;;;;;;26.33;22.67;;;;;21.29;44.38;101830.03;5077012;27;45385;-56
2022/05/09 08:51:06;;;;;;;;;23.00;20.33;;;;;21.63;44.56;101828.13;5077533;27;45265;-55
2022/05/09 08:53:36;;;;;;;;;25.33;20.33;;;;;21.94;42.50;101829.09;5078080;27;45324;-56
2022/05/09 08:56:05;;;;;;;;;22.67;18.00;;;;;22.18;41.95;101818.06;5073761;27;45468;-62
2022/05/09 08:58:45;;;;;;;;;24.00;21.67;;;;;22.45;41.38;101821.09;5058420;28;45227;-61
2022/05/09 09:01:17;;;;;;;;;24.67;19.33;;;;;22.77;41.17;101818.28;5061568;28;45366;-59
2022/05/09 09:04:00;;;;;;;;;22.33;21.33;;;;;23.16;40.82;101810.31;5057217;28;45315;-58
2022/05/09 09:06:47;;;;;;;;;29.00;21.33;;;;;23.65;40.55;101811.31;5072170;28;45255;-54
2022/05/09 09:09:46;;;;;;;;;22.33;18.00;;;;;24.04;40.36;101807.63;5057034;28;45402;-57
2022/05/09 09:12:32;;;;;;;;;24.33;22.00;;;;;24.34;39.96;101803.03;5056898;28;45321;-55
2022/05/09 09:15:25;;;;;;;;;18.75;18.75;;;;;24.86;38.57;101814.31;5048804;28;45577;-58
2022/05/09 09:18:04;;;;;;;;;22.67;21.67;;;;;25.21;37.25;101802.72;5054956;28;46136;-58
2022/05/09 09:20:32;;;;;;;;;26.00;23.00;;;;;25.61;37.67;101801.47;5065278;28;45410;-56
2022/05/09 09:23:14;;;;;;;;;23.75;23.25;;;;;25.85;36.55;101788.13;5054970;27;45547;-55
2022/05/09 09:25:49;;;;;;;;;21.25;19.25;;;;;26.08;36.64;101785.78;5076133;27;45268;-61
2022/05/09 09:28:26;;;;;;;;;24.25;21.50;;;;;26.17;35.36;101782.97;5077283;27;45659;-59
2022/05/09 09:30:53;;;;;;;;;18.50;18.25;;;;;26.23;35.46;101784.19;5076987;27;45470;-60
2022/05/09 09:33:19;;;;;;;;;25.00;19.75;;;;;26.39;33.42;101792.50;5077170;27;45460;-61
2022/05/09 09:35:48;;;;;;;;;26.25;20.25;;;;;26.48;34.12;101793.44;5077370;27;45354;-60
2022/05/09 09:38:23;;;;;;;;;26.25;21.50;;;;;26.52;34.99;101796.69;5077029;28;45680;-61
2022/05/09 09:40:50;;;;;;;;;24.75;22.25;;;;;26.64;34.44;101789.94;5057653;27;45512;-64
2022/05/09 09:43:16;;;;;;;;;25.75;23.50;;;;;26.69;33.30;101791.19;5056545;28;45436;-60
2022/05/09 09:45:46;;;;;;;;;21.75;21.75;;;;;26.86;33.80;101800.31;5056995;28;45307;-61
2022/05/09 09:48:21;;;;;;;;;21.25;19.25;;;;;27.14;34.00;101794.66;5056439;28;46301;-61
2022/05/09 09:51:05;;;;;;;;;21.50;21.00;;;;;27.29;33.97;101796.56;5056260;27;45374;-54
2022/05/09 09:53:34;;;;;;;;;19.25;18.50;;;;;27.49;33.17;101794.41;5056626;27;45484;-56
2022/05/09 09:56:08;;;;;;;;;21.75;21.50;;;;;27.59;32.95;101784.16;5054648;28;45298;-60
2022/05/09 09:58:35;;;;;;;;;24.75;21.50;;;;;27.73;32.58;101781.81;5050926;27;45450;-55
2022/05/09 10:01:33;;;;;;;;;19.75;18.00;;;;;27.86;32.78;101773.97;5062595;27;45242;-59
2022/05/09 10:04:06;;;;;;;;;23.75;22.75;;;;;27.93;31.29;101772.28;5033439;28;45444;-55
2022/05/09 10:06:35;;;;;;;;;22.25;18.50;;;;;28.00;32.38;101773.31;5056429;28;45555;-57
2022/05/09 10:09:06;;;;;;;;;19.50;18.25;;;;;28.14;31.02;101774.50;5054711;28;45391;-58
2022/05/09 10:11:33;;;;;;;;;24.50;22.25;;;;;28.02;31.04;101770.41;5055085;28;45586;-60
2022/05/09 10:14:01;;;;;;;;;20.00;18.00;;;;;27.60;30.71;101766.75;5054910;28;45358;-57
2022/05/09 10:16:55;;;;;;;;;19.25;19.00;;;;;27.49;32.85;101769.84;5059426;28;45520;-64
2022/05/09 10:19:31;;;;;;;;;28.25;21.50;;;;;27.29;31.83;101758.34;5076241;28;45353;-61
2022/05/09 10:25:14;;;;;;;;;23.50;22.00;;;;;26.54;33.97;101756.44;5076487;28;45458;-57
2022/05/09 10:27:40;;;;;;;;;20.75;20.25;;;;;26.34;34.17;101755.78;5076378;27;45330;-58
2022/05/09 10:30:37;;;;;;;;;21.00;20.75;;;;;26.18;34.86;101770.19;5058022;27;45452;-61
2022/05/09 10:33:31;;;;;;;;;21.25;21.00;;;;;25.94;35.12;101757.22;5053982;28;45801;-62
2022/05/09 10:36:01;;;;;;;;;21.75;20.25;;;;;25.75;34.20;101755.50;5072739;28;45339;-58
2022/05/09 10:38:46;;;;;;;;;22.00;19.50;;;;;25.52;34.99;101759.66;5076514;27;45499;-58
2022/05/09 10:41:21;;;;;;;;;19.00;18.00;;;;;25.30;35.83;101755.53;5075988;27;45464;-55
2022/05/09 10:44:11;;;;;;;;;22.50;21.25;;;;;25.12;35.39;101752.78;5075867;27;45431;-57
2022/05/09 10:46:59;;;;;;;;;18.25;17.00;;;;;24.98;35.63;101753.25;5076229;27;45428;-58
2022/05/09 10:49:46;;;;;;;;;22.50;20.25;;;;;24.84;36.09;101749.16;5076140;28;45411;-57
2022/05/09 10:52:43;;;;;;;;;20.75;20.75;;;;;24.73;36.30;101752.09;5055942;28;45693;-62
2022/05/09 10:55:17;;;;;;;;;21.75;20.25;;;;;24.77;36.33;101748.06;5076216;27;45361;-60
2022/05/09 10:58:01;;;;;;;;;20.75;17.25;;;;;24.74;36.45;101742.06;5074592;28;45329;-61
2022/05/09 11:00:27;;;;;;;;;24.25;16.75;;;;;24.73;36.59;101745.78;5066587;27;45528;-57
2022/05/09 11:02:58;;;;;;;;;21.00;17.25;;;;;24.72;36.47;101739.50;5049799;28;46064;-57
2022/05/09 11:05:27;;;;;;;;;20.00;20.00;;;;;24.71;35.87;101738.63;5051082;28;45670;-58
2022/05/09 11:08:07;;;;;;;;;24.67;22.33;;;;;24.65;36.18;101739.25;5035411;28;45494;-59
2022/05/09 11:10:41;;;;;;;;;24.00;18.00;;;;;24.62;36.20;101734.13;5035900;28;45356;-61
2022/05/09 11:13:20;;;;;;;;;19.75;19.00;;;;;24.60;36.07;101733.38;5035409;28;47148;-62
2022/05/09 11:16:22;;;;;;;;;20.67;20.67;;;;;24.66;35.99;101738.25;5050564;28;45411;-62
2022/05/09 11:18:47;;;;;;;;;25.00;20.00;;;;;24.66;36.30;101732.81;5035241;28;45456;-56
2022/05/09 11:21:45;;;;;;;;;20.33;20.33;;;;;24.67;35.72;101729.06;5038353;28;45571;-57
2022/05/09 11:24:19;;;;;;;;;22.50;21.00;;;;;24.75;36.26;101727.47;5058116;28;45405;-59
2022/05/09 11:27:13;;;;;;;;;23.25;21.50;;;;;24.84;35.68;101723.81;5056478;28;45695;-56
2022/05/09 11:30:08;;;;;;;;;18.67;18.33;;;;;24.88;35.11;101727.97;5058830;28;45460;-59